Time;durP1;ratioP1;P1;durP2;ratioP2;P2;SDS_P1;SDS_P2;PMS_P1;PMS_P2;Temp;Humidity;BMP_temperature;BMP_pressure;BME280_temperature;BME280_humidity;BME280_pressure;Samples;Min_cycle;Max_cycle;Signal;HPM_P1;HPM_P2
2024/04/22 00:00:36;;;;;;;7.40;3.47;;;4.00;1.00;;;;;;5375672;26;20299;-78
2024/04/22 00:03:05;;;;;;;4.57;3.03;;;4.10;99.90;;;;;;5382544;26;20249;-81
2024/04/22 00:05:31;;;;;;;4.20;2.90;;;4.00;99.90;;;;;;5373019;26;20245;-81
2024/04/22 00:08:00;;;;;;;8.70;3.87;;;4.00;99.90;;;;;;5383126;26;20329;-80
2024/04/22 00:10:26;;;;;;;6.27;3.23;;;4.10;99.90;;;;;;5374645;26;20589;-81
2024/04/22 00:12:54;;;;;;;5.23;3.40;;;4.00;1.00;;;;;;5377459;26;20314;-80
2024/04/22 00:15:20;;;;;;;6.50;3.30;;;3.90;1.00;;;;;;5373847;26;21310;-81
2024/04/22 00:17:51;;;;;;;7.97;3.47;;;3.90;99.90;;;;;;5375287;26;20238;-81
2024/04/22 00:20:17;;;;;;;4.97;3.93;;;3.90;1.00;;;;;;5372370;26;20289;-81
2024/04/22 00:22:46;;;;;;;5.10;3.30;;;3.90;1.00;;;;;;5375127;26;20255;-81
2024/04/22 00:25:12;;;;;;;7.17;3.90;;;3.90;1.00;;;;;;5376189;26;20245;-81
2024/04/22 00:27:41;;;;;;;6.70;3.70;;;3.90;99.90;;;;;;5383184;26;20245;-80
2024/04/22 00:30:08;;;;;;;5.77;3.50;;;3.90;1.00;;;;;;5382739;26;20239;-81
2024/04/22 00:32:36;;;;;;;4.90;3.13;;;4.00;1.00;;;;;;5381340;26;20241;-81
2024/04/22 00:35:05;;;;;;;5.47;3.13;;;3.90;1.00;;;;;;5381924;26;20670;-81
2024/04/22 00:37:34;;;;;;;5.70;3.70;;;3.90;92.50;;;;;;5383477;26;20242;-80
2024/04/22 00:40:00;;;;;;;5.23;3.50;;;3.90;1.00;;;;;;5382634;26;20230;-80
2024/04/22 00:42:28;;;;;;;6.07;3.83;;;3.90;1.00;;;;;;5382835;26;20288;-81
2024/04/22 00:44:54;;;;;;;5.97;3.30;;;3.90;1.00;;;;;;5381441;26;20265;-80
2024/04/22 00:47:23;;;;;;;8.23;3.90;;;3.90;1.00;;;;;;5383050;26;20271;-81
2024/04/22 00:49:49;;;;;;;4.07;2.83;;;3.90;1.00;;;;;;5382194;26;20242;-82
2024/04/22 00:52:21;;;;;;;8.37;4.17;;;3.90;99.90;;;;;;5382510;26;20233;-81
2024/04/22 00:54:47;;;;;;;6.50;4.20;;;4.00;1.00;;;;;;5382539;26;20790;-81
2024/04/22 00:57:17;;;;;;;5.87;3.93;;;4.00;1.00;;;;;;5382559;26;20270;-82
2024/04/22 00:59:43;;;;;;;6.03;3.50;;;4.00;99.90;;;;;;5382001;26;20284;-82
2024/04/22 01:02:12;;;;;;;5.63;3.83;;;4.00;72.50;;;;;;5376261;26;20246;-80
2024/04/22 01:04:40;;;;;;;9.17;4.47;;;4.00;99.90;;;;;;5379780;26;20284;-81
2024/04/22 01:07:10;;;;;;;5.97;4.40;;;4.00;99.90;;;;;;5382470;26;20755;-81
2024/04/22 01:09:39;;;;;;;7.63;3.50;;;4.00;99.90;;;;;;5383283;26;20588;-81
2024/04/22 01:12:08;;;;;;;9.93;4.50;;;3.90;99.90;;;;;;5373227;26;20245;-79
2024/04/22 01:14:34;;;;;;;7.20;4.23;;;3.90;99.90;;;;;;5391256;26;20284;-80
2024/04/22 01:17:03;;;;;;;8.10;3.87;;;3.80;1.00;;;;;;5382697;26;20237;-79
2024/04/22 01:19:29;;;;;;;7.63;3.90;;;3.90;1.00;;;;;;5376143;26;20288;-79
2024/04/22 01:22:00;;;;;;;5.83;3.23;;;3.80;1.00;;;;;;5365259;26;20736;-80
2024/04/22 01:24:26;;;;;;;6.20;3.47;;;3.80;1.00;;;;;;5379381;26;20242;-80
2024/04/22 01:26:58;;;;;;;7.57;4.97;;;3.80;1.00;;;;;;5373561;26;20280;-77
2024/04/22 01:29:24;;;;;;;4.63;3.27;;;3.80;99.90;;;;;;5382479;26;20238;-79
2024/04/22 01:31:53;;;;;;;6.93;3.90;;;3.80;99.90;;;;;;5386631;26;20245;-81
2024/04/22 01:34:18;;;;;;;6.03;3.53;;;3.80;99.90;;;;;;5377374;26;20601;-80
2024/04/22 01:36:47;;;;;;;5.30;3.43;;;3.70;1.00;;;;;;5382889;26;20293;-80
2024/04/22 01:39:16;;;;;;;5.23;3.33;;;3.60;1.00;;;;;;5379192;26;20289;-81
2024/04/22 01:41:44;;;;;;;4.60;3.60;;;3.50;1.00;;;;;;5384389;26;20245;-81
2024/04/22 01:44:10;;;;;;;6.03;3.50;;;3.40;1.00;;;;;;5382905;26;20272;-81
2024/04/22 01:46:39;;;;;;;4.87;3.07;;;3.30;99.90;;;;;;5378869;26;20293;-80
2024/04/22 01:49:05;;;;;;;5.30;3.00;;;3.20;1.00;;;;;;5378605;26;20731;-80
2024/04/22 01:51:33;;;;;;;6.83;3.40;;;3.10;1.00;;;;;;5382458;26;20249;-80
2024/04/22 01:53:59;;;;;;;5.93;3.37;;;3.00;1.00;;;;;;5375225;26;20292;-79
2024/04/22 01:56:30;;;;;;;7.17;3.10;;;2.90;1.00;;;;;;5382079;26;20277;-80
2024/04/22 01:58:57;;;;;;;6.17;3.97;;;2.80;1.00;;;;;;5372441;26;20238;-81
2024/04/22 02:01:26;;;;;;;4.93;3.13;;;2.80;1.00;;;;;;5382517;26;20301;-80
2024/04/22 02:03:52;;;;;;;6.03;3.27;;;2.70;1.00;;;;;;5382210;26;20234;-79
2024/04/22 02:06:21;;;;;;;5.03;2.97;;;2.60;1.00;;;;;;5382902;26;20284;-81
2024/04/22 02:08:47;;;;;;;6.27;3.90;;;2.70;1.00;;;;;;5359641;26;20284;-80
2024/04/22 02:11:15;;;;;;;6.97;3.90;;;2.60;1.00;;;;;;5376980;26;20254;-80
2024/04/22 02:13:44;;;;;;;7.03;3.50;;;2.50;1.00;;;;;;5382598;26;20628;-80
2024/04/22 02:16:13;;;;;;;4.73;3.40;;;2.50;99.90;;;;;;5382394;26;20748;-79
2024/04/22 02:18:39;;;;;;;5.27;3.70;;;2.50;1.00;;;;;;5381858;26;20254;-80
2024/04/22 02:21:07;;;;;;;7.20;3.57;;;2.40;13.60;;;;;;5380552;26;20277;-80
2024/04/22 02:23:33;;;;;;;5.97;3.53;;;2.30;99.90;;;;;;5376302;26;20296;-80
2024/04/22 02:26:02;;;;;;;4.43;3.23;;;2.30;1.00;;;;;;5380961;26;20234;-80
2024/04/22 02:28:29;;;;;;;5.43;3.30;;;2.20;1.00;;;;;;5377484;26;20241;-80
2024/04/22 02:31:00;;;;;;;6.03;3.77;;;2.10;1.00;;;;;;5382485;26;20565;-80
2024/04/22 02:33:26;;;;;;;7.33;4.20;;;2.10;1.00;;;;;;5380664;26;20284;-81
2024/04/22 02:35:54;;;;;;;6.50;3.80;;;2.00;68.60;;;;;;5385644;26;20241;-80
2024/04/22 02:38:20;;;;;;;4.90;3.50;;;2.00;99.90;;;;;;5387756;26;20296;-79
2024/04/22 02:40:50;;;;;;;6.90;4.10;;;1.90;1.00;;;;;;5382201;26;20728;-80
2024/04/22 02:43:16;;;;;;;6.07;3.97;;;1.90;99.90;;;;;;5378528;26;20768;-79
2024/04/22 02:45:45;;;;;;;5.50;3.60;;;1.80;99.90;;;;;;5379984;26;20510;-79
2024/04/22 02:48:13;;;;;;;7.13;4.03;;;1.80;99.90;;;;;;5384969;26;20245;-80
2024/04/22 02:50:42;;;;;;;5.47;3.63;;;1.80;1.00;;;;;;5384843;26;20284;-80
2024/04/22 02:53:08;;;;;;;7.07;3.77;;;1.80;1.00;;;;;;5377699;26;20764;-79
2024/04/22 02:55:36;;;;;;;5.93;3.47;;;1.70;1.00;;;;;;5381822;26;20233;-79
2024/04/22 02:58:03;;;;;;;5.47;3.93;;;1.70;99.90;;;;;;5380300;26;20504;-79
2024/04/22 03:00:31;;;;;;;5.67;3.73;;;1.70;99.90;;;;;;5371490;26;20276;-78
2024/04/22 03:02:58;;;;;;;6.73;3.57;;;1.60;99.90;;;;;;5376484;26;20247;-78
2024/04/22 03:05:29;;;;;;;7.87;3.83;;;1.60;1.00;;;;;;5386308;26;20285;-79
2024/04/22 03:07:55;;;;;;;6.50;3.73;;;1.50;1.00;;;;;;5381200;26;20354;-79
2024/04/22 03:10:23;;;;;;;6.77;3.83;;;1.50;62.80;;;;;;5382169;26;20607;-79
2024/04/22 03:12:49;;;;;;;6.30;4.10;;;1.60;51.00;;;;;;5378330;26;20626;-79
2024/04/22 03:15:18;;;;;;;6.10;3.80;;;1.60;1.00;;;;;;5382769;26;20237;-79
2024/04/22 03:17:44;;;;;;;7.33;4.30;;;1.60;99.90;;;;;;5381232;26;20242;-79
2024/04/22 03:20:13;;;;;;;6.73;3.87;;;1.60;99.90;;;;;;5375439;26;20287;-79
2024/04/22 03:22:41;;;;;;;6.73;3.73;;;1.60;99.90;;;;;;5382397;26;20234;-79
2024/04/22 03:25:10;;;;;;;6.53;3.93;;;1.60;99.90;;;;;;5384830;26;20238;-78
2024/04/22 03:27:36;;;;;;;5.47;3.70;;;1.60;1.00;;;;;;5376702;26;20265;-79
2024/04/22 03:30:05;;;;;;;6.43;3.87;;;1.60;1.00;;;;;;5385540;26;20284;-79
2024/04/22 03:32:32;;;;;;;5.50;3.50;;;1.50;1.00;;;;;;5379510;26;20611;-77
2024/04/22 03:35:00;;;;;;;7.17;4.03;;;1.70;99.90;;;;;;5374595;26;20290;-79
2024/04/22 03:37:29;;;;;;;7.43;3.93;;;1.60;1.00;;;;;;5377311;26;20309;-77
2024/04/22 03:40:00;;;;;;;6.03;3.70;;;1.60;1.00;;;;;;5373192;26;20352;-78
2024/04/22 03:42:29;;;;;;;8.33;3.80;;;1.60;1.00;;;;;;5374920;26;20254;-79
2024/04/22 03:44:55;;;;;;;7.40;3.80;;;1.60;1.00;;;;;;5374988;26;20320;-78
2024/04/22 03:50:09;;;;;;;6.27;3.27;;;1.40;1.00;;;;;;5383655;26;20280;-81
2024/04/22 03:52:38;;;;;;;6.90;3.57;;;1.30;1.00;;;;;;5377357;26;20787;-77
2024/04/22 03:55:09;;;;;;;5.87;3.27;;;1.20;1.00;;;;;;5382384;26;20313;-77
2024/04/22 03:57:38;;;;;;;7.07;3.30;;;1.20;1.00;;;;;;5377195;26;20302;-78
2024/04/22 04:00:08;;;;;;;5.60;3.20;;;1.20;1.00;;;;;;5368623;26;20996;-79
2024/04/22 04:02:34;;;;;;;5.20;2.90;;;1.10;1.00;;;;;;5373869;26;20249;-78
2024/04/22 04:05:02;;;;;;;6.27;3.07;;;0.90;1.00;;;;;;5372981;26;20241;-78
2024/04/22 04:07:31;;;;;;;5.17;3.20;;;0.80;1.00;;;;;;5374474;26;20304;-79
2024/04/22 04:09:57;;;;;;;3.83;3.10;;;0.90;1.00;;;;;;5374458;26;20253;-79
2024/04/22 04:12:29;;;;;;;5.70;3.17;;;1.00;1.00;;;;;;5374621;26;20627;-79
2024/04/22 04:14:55;;;;;;;7.73;3.57;;;1.00;1.00;;;;;;5377548;26;20288;-79
2024/04/22 04:17:24;;;;;;;5.03;3.40;;;1.00;99.90;;;;;;5377877;26;20246;-79
2024/04/22 04:19:51;;;;;;;4.37;3.20;;;1.00;1.00;;;;;;5381572;26;20241;-79
2024/04/22 04:22:19;;;;;;;7.03;3.00;;;1.20;99.90;;;;;;5379040;26;20234;-79
2024/04/22 04:24:45;;;;;;;6.23;3.10;;;1.30;1.00;;;;;;5382821;26;20337;-79
2024/04/22 04:27:15;;;;;;;7.17;3.40;;;1.20;1.00;;;;;;5369253;26;20326;-79
2024/04/22 04:29:46;;;;;;;4.73;2.83;;;1.30;1.00;;;;;;5364361;26;20725;-80
2024/04/22 04:32:15;;;;;;;4.20;2.77;;;1.20;1.00;;;;;;5365138;26;20602;-79
2024/04/22 04:34:42;;;;;;;4.23;2.60;;;1.20;1.00;;;;;;5368915;26;20621;-79
2024/04/22 04:37:11;;;;;;;5.13;2.60;;;1.30;1.00;;;;;;5372903;26;20287;-79
2024/04/22 04:39:37;;;;;;;5.77;2.73;;;1.40;1.00;;;;;;5368161;26;20364;-79
2024/04/22 04:42:06;;;;;;;6.23;2.90;;;1.50;1.00;;;;;;5375440;26;20346;-78
2024/04/22 04:44:32;;;;;;;4.80;2.93;;;1.70;1.00;;;;;;5374760;26;20269;-78
2024/04/22 04:47:04;;;;;;;9.70;2.77;;;1.60;1.00;;;;;;5376575;26;20850;-78
2024/04/22 04:49:30;;;;;;;4.13;2.67;;;1.50;1.00;;;;;;5379291;26;20245;-78
2024/04/22 04:51:59;;;;;;;3.47;2.40;;;1.80;1.00;;;;;;5377942;26;20676;-79
2024/04/22 04:54:25;;;;;;;3.33;2.53;;;2.10;99.90;;;;;;5381592;26;20257;-79
2024/04/22 04:56:53;;;;;;;4.17;2.30;;;2.20;1.00;;;;;;5379584;26;20254;-79
2024/04/22 04:59:20;;;;;;;3.63;2.47;;;2.20;1.00;;;;;;5371031;26;20309;-79
2024/04/22 05:01:48;;;;;;;6.37;2.70;;;2.20;20.30;;;;;;5368353;26;20786;-79
2024/04/22 05:04:17;;;;;;;4.30;2.80;;;2.30;1.00;;;;;;5364047;26;20251;-79
2024/04/22 05:06:46;;;;;;;3.60;2.40;;;2.40;1.00;;;;;;5370197;26;20242;-79
2024/04/22 05:09:12;;;;;;;3.50;2.20;;;2.40;1.00;;;;;;5366327;26;20375;-80
2024/04/22 05:11:41;;;;;;;3.10;2.50;;;2.20;1.00;;;;;;5372681;26;20288;-78
2024/04/22 05:14:07;;;;;;;4.03;2.80;;;2.20;99.90;;;;;;5369705;26;20276;-79
2024/04/22 05:16:36;;;;;;;3.20;2.43;;;2.20;99.90;;;;;;5372960;26;20254;-79
2024/04/22 05:19:03;;;;;;;3.57;2.50;;;2.20;1.00;;;;;;5375797;26;20343;-79
2024/04/22 05:21:34;;;;;;;4.97;2.30;;;2.30;1.00;;;;;;5374658;26;20243;-80
2024/04/22 05:24:07;;;;;;;4.17;2.60;;;2.40;1.00;;;;;;5378374;26;20291;-80
2024/04/22 05:26:36;;;;;;;3.87;2.47;;;2.30;1.00;;;;;;5378502;26;20281;-79
2024/04/22 05:29:02;;;;;;;3.33;2.50;;;2.50;99.90;;;;;;5380864;26;20265;-79
2024/04/22 05:31:32;;;;;;;3.73;2.77;;;2.60;99.90;;;;;;5377990;26;20237;-79
2024/04/22 05:36:48;;;;;;;4.17;2.60;;;2.90;99.90;;;;;;5371305;26;20633;-78
2024/04/22 05:39:17;;;;;;;3.23;2.23;;;3.00;99.90;;;;;;5374625;26;20360;-79
2024/04/22 05:41:46;;;;;;;4.60;2.60;;;3.00;99.90;;;;;;5369676;26;20359;-78
2024/04/22 05:44:16;;;;;;;4.00;2.60;;;3.10;1.00;;;;;;5374444;26;20342;-78
2024/04/22 05:46:44;;;;;;;5.50;3.07;;;3.10;29.80;;;;;;5374122;26;20250;-79
2024/04/22 05:49:13;;;;;;;5.53;2.80;;;3.00;1.00;;;;;;5378852;26;20625;-78
2024/04/22 05:51:39;;;;;;;4.37;2.60;;;3.20;1.00;;;;;;5378828;26;20296;-79
2024/04/22 05:54:11;;;;;;;4.63;2.80;;;3.20;1.00;;;;;;5380696;26;20249;-79
2024/04/22 05:56:37;;;;;;;3.20;2.00;;;3.30;1.00;;;;;;5381336;26;20346;-78
2024/04/22 05:59:08;;;;;;;4.80;2.30;;;3.20;99.90;;;;;;5368607;26;20751;-79
2024/04/22 06:01:34;;;;;;;4.23;2.53;;;3.20;99.90;;;;;;5363203;26;20312;-79
2024/04/22 06:04:04;;;;;;;2.70;2.13;;;3.10;1.00;;;;;;5362303;26;20241;-79
2024/04/22 06:06:30;;;;;;;4.03;2.60;;;3.30;1.00;;;;;;5367200;26;20246;-79
2024/04/22 06:08:59;;;;;;;3.97;2.10;;;3.40;1.00;;;;;;5370316;26;20304;-78
2024/04/22 06:11:28;;;;;;;3.60;2.60;;;3.50;1.00;;;;;;5368387;26;20582;-78
2024/04/22 06:13:56;;;;;;;4.47;2.23;;;3.30;1.00;;;;;;5374332;26;20280;-79
2024/04/22 06:16:23;;;;;;;2.63;2.17;;;3.50;1.00;;;;;;5371826;26;20744;-79
2024/04/22 06:18:52;;;;;;;5.90;2.50;;;3.50;1.00;;;;;;5375256;26;20249;-78
2024/04/22 06:21:18;;;;;;;3.43;2.07;;;3.60;1.00;;;;;;5373635;26;20719;-79
2024/04/22 06:23:47;;;;;;;3.50;2.07;;;3.60;1.00;;;;;;5376687;26;20662;-79
2024/04/22 06:26:13;;;;;;;3.67;2.20;;;3.60;1.00;;;;;;5377434;26;20300;-76
2024/04/22 06:28:45;;;;;;;3.37;1.93;;;3.70;1.00;;;;;;5378529;26;20329;-79
2024/04/22 06:31:11;;;;;;;2.77;1.90;;;3.80;1.00;;;;;;5375462;26;20241;-77
2024/04/22 06:33:42;;;;;;;4.27;2.20;;;3.60;99.90;;;;;;5379842;26;20279;-78
2024/04/22 06:36:10;;;;;;;4.90;2.30;;;3.60;99.90;;;;;;5374614;26;20293;-79
2024/04/22 06:38:39;;;;;;;2.93;2.50;;;3.70;99.90;;;;;;5380404;26;20296;-79
2024/04/22 06:41:05;;;;;;;3.43;2.20;;;3.90;99.90;;;;;;5375853;26;20701;-79
2024/04/22 06:43:34;;;;;;;7.20;2.43;;;3.80;99.90;;;;;;5376334;26;20276;-79
2024/04/22 06:46:03;;;;;;;3.23;2.20;;;3.70;99.90;;;;;;5377447;26;20277;-78
2024/04/22 06:48:32;;;;;;;3.57;2.03;;;4.00;99.90;;;;;;5379484;26;20601;-79
2024/04/22 06:51:00;;;;;;;4.03;2.23;;;4.10;99.90;;;;;;5379458;26;20289;-77
2024/04/22 06:53:29;;;;;;;3.27;2.17;;;4.10;99.90;;;;;;5382397;26;20288;-79
2024/04/22 06:55:55;;;;;;;5.27;2.53;;;4.10;99.90;;;;;;5382575;26;20384;-79
2024/04/22 06:58:24;;;;;;;2.33;2.00;;;4.10;99.90;;;;;;5367095;26;20293;-79
2024/04/22 07:00:50;;;;;;;4.57;2.23;;;4.70;99.90;;;;;;5364851;26;20283;-77
2024/04/22 07:03:21;;;;;;;2.57;2.17;;;4.60;99.90;;;;;;5358698;26;20286;-77
2024/04/22 07:05:48;;;;;;;3.30;2.07;;;4.50;5.00;;;;;;5365761;26;20238;-78
2024/04/22 07:08:17;;;;;;;2.97;2.10;;;4.70;13.80;;;;;;5363558;26;20313;-77
2024/04/22 07:10:43;;;;;;;3.67;2.07;;;4.80;1.00;;;;;;5366321;26;20246;-78
2024/04/22 07:13:11;;;;;;;3.17;2.30;;;4.70;9.10;;;;;;5364067;26;20303;-80
2024/04/22 07:15:38;;;;;;;4.93;2.30;;;4.70;1.00;;;;;;5364395;26;20280;-76
2024/04/22 07:18:07;;;;;;;4.60;2.40;;;4.90;1.00;;;;;;5366938;26;20268;-78
2024/04/22 07:20:36;;;;;;;2.60;1.90;;;5.10;1.00;;;;;;5365532;26;20254;-79
2024/04/22 07:23:05;;;;;;;4.47;2.00;;;5.20;1.00;;;;;;5370627;26;20288;-80
2024/04/22 07:25:31;;;;;;;1.80;1.60;;;5.20;1.00;;;;;;5369509;26;20282;-82
2024/04/22 07:28:01;;;;;;;2.90;1.90;;;5.60;1.00;;;;;;5374353;26;20292;-81
2024/04/22 07:30:28;;;;;;;4.00;1.70;;;5.50;1.00;;;;;;5371495;26;20803;-80
2024/04/22 07:32:57;;;;;;;4.47;1.93;;;5.10;1.00;;;;;;5372623;26;20744;-77
2024/04/22 07:35:24;;;;;;;2.73;1.80;;;5.30;1.00;;;;;;5375229;26;20305;-76
2024/04/22 07:38:01;;;;;;;1.97;1.77;;;5.30;1.00;;;;;;5378440;26;20253;-77
2024/04/22 07:40:28;;;;;;;2.47;1.60;;;5.30;1.00;;;;;;5380510;26;20245;-77
2024/04/22 07:42:57;;;;;;;2.83;1.90;;;5.50;1.00;;;;;;5381714;26;20309;-78
2024/04/22 07:45:23;;;;;;;4.40;1.90;;;5.40;1.00;;;;;;5380897;26;20291;-78
2024/04/22 07:47:52;;;;;;;3.20;1.93;;;5.50;1.00;;;;;;5378155;26;20673;-78
2024/04/22 07:50:20;;;;;;;5.33;2.00;;;5.80;1.00;;;;;;5382703;26;20292;-79
2024/04/22 07:52:50;;;;;;;3.33;1.93;;;6.20;1.00;;;;;;5379402;26;20250;-80
2024/04/22 07:55:20;;;;;;;3.13;1.70;;;6.00;1.00;;;;;;5382185;26;20276;-80
2024/04/22 07:57:51;;;;;;;2.20;1.70;;;6.20;1.00;;;;;;5371452;26;20400;-78
2024/04/22 08:00:19;;;;;;;1.90;1.57;;;6.20;1.00;;;;;;5362031;26;20338;-79
2024/04/22 08:02:50;;;;;;;2.43;1.90;;;6.10;1.00;;;;;;5360394;26;20239;-79
2024/04/22 08:05:18;;;;;;;2.53;1.80;;;5.80;1.00;;;;;;5366250;26;20243;-78
2024/04/22 08:07:50;;;;;;;4.83;2.23;;;6.00;1.00;;;;;;5359249;26;20250;-78
2024/04/22 08:10:19;;;;;;;3.80;1.80;;;6.00;1.00;;;;;;5359743;26;20297;-77
2024/04/22 08:12:48;;;;;;;4.00;1.80;;;5.80;1.00;;;;;;5360349;26;20295;-77
2024/04/22 08:15:14;;;;;;;2.27;1.53;;;5.90;1.00;;;;;;5362664;26;20284;-79
2024/04/22 08:17:43;;;;;;;2.63;1.70;;;5.90;1.00;;;;;;5364337;26;20251;-77
2024/04/22 08:20:09;;;;;;;2.83;1.70;;;6.30;1.00;;;;;;5362235;26;20249;-79
2024/04/22 08:22:38;;;;;;;3.17;1.90;;;6.20;99.90;;;;;;5364470;26;20792;-79
2024/04/22 08:25:05;;;;;;;4.07;1.90;;;6.30;99.90;;;;;;5372198;26;20355;-79
2024/04/22 08:27:36;;;;;;;2.10;1.83;;;6.30;99.90;;;;;;5367110;26;20661;-77
2024/04/22 08:30:02;;;;;;;3.27;1.73;;;6.40;99.90;;;;;;5367732;26;20287;-78
2024/04/22 08:32:31;;;;;;;2.47;1.70;;;6.20;99.90;;;;;;5371375;26;20238;-77
2024/04/22 08:34:57;;;;;;;2.03;1.37;;;6.20;99.90;;;;;;5373437;26;20238;-79
2024/04/22 08:37:26;;;;;;;2.33;1.53;;;6.00;99.90;;;;;;5378516;26;20660;-79
2024/04/22 08:39:52;;;;;;;2.33;1.60;;;6.00;99.90;;;;;;5374776;26;20666;-78
2024/04/22 08:42:23;;;;;;;2.77;1.60;;;6.00;99.90;;;;;;5376422;26;20290;-78
2024/04/22 08:44:53;;;;;;;1.60;1.47;;;6.30;99.90;;;;;;5378690;26;20309;-77
2024/04/22 08:47:22;;;;;;;2.60;1.53;;;6.30;99.90;;;;;;5378596;26;20581;-78
2024/04/22 08:49:49;;;;;;;2.87;1.30;;;6.30;99.90;;;;;;5380554;26;20249;-79
2024/04/22 08:52:19;;;;;;;2.77;1.60;;;6.50;99.90;;;;;;5381912;26;20310;-79
2024/04/22 08:54:45;;;;;;;2.40;1.60;;;6.90;99.90;;;;;;5379396;26;20257;-79
2024/04/22 08:57:14;;;;;;;1.70;1.60;;;6.70;99.90;;;;;;5375318;26;20235;-78
2024/04/22 08:59:40;;;;;;;2.77;1.50;;;7.30;99.90;;;;;;5350978;26;20706;-77
2024/04/22 09:02:14;;;;;;;1.90;1.70;;;7.50;99.90;;;;;;5352946;26;20238;-77
2024/04/22 09:04:41;;;;;;;3.83;2.03;;;7.20;99.90;;;;;;5355301;26;20292;-79
2024/04/22 09:07:11;;;;;;;3.20;1.90;;;7.80;99.90;;;;;;5355283;26;20771;-78
2024/04/22 09:09:38;;;;;;;3.10;1.80;;;7.70;98.20;;;;;;5354938;26;20285;-79
2024/04/22 09:12:07;;;;;;;4.10;2.23;;;7.70;72.60;;;;;;5357223;26;20283;-77
2024/04/22 09:14:34;;;;;;;2.33;2.13;;;7.60;88.70;;;;;;5356723;26;20843;-79
2024/04/22 09:17:04;;;;;;;2.73;2.30;;;8.40;99.90;;;;;;5361861;26;20728;-78
2024/04/22 09:19:34;;;;;;;4.93;2.60;;;8.60;1.00;;;;;;5366624;26;20604;-77
2024/04/22 09:22:06;;;;;;;3.77;2.33;;;9.00;77.00;;;;;;5364462;26;20284;-77
2024/04/22 09:24:32;;;;;;;3.70;2.20;;;8.80;99.90;;;;;;5361625;26;20238;-77
2024/04/22 09:27:00;;;;;;;3.67;2.30;;;8.50;1.00;;;;;;5366047;26;20250;-77
2024/04/22 09:29:28;;;;;;;5.17;2.40;;;7.90;1.00;;;;;;5364123;26;20346;-76
2024/04/22 09:32:02;;;;;;;2.83;2.30;;;7.80;1.00;;;;;;5365409;26;20238;-78
2024/04/22 09:34:35;;;;;;;3.37;2.20;;;7.90;1.00;;;;;;5368394;26;20698;-77
2024/04/22 09:37:04;;;;;;;3.30;2.27;;;8.30;1.00;;;;;;5370638;26;20254;-78
2024/04/22 09:39:33;;;;;;;5.83;2.57;;;8.10;1.00;;;;;;5371028;26;20283;-80
2024/04/22 09:42:03;;;;;;;3.33;2.50;;;8.80;1.00;;;;;;5370553;26;20737;-78
2024/04/22 09:44:31;;;;;;;5.43;2.83;;;8.50;28.90;;;;;;5374558;26;20279;-77
2024/04/22 09:47:01;;;;;;;7.40;2.83;;;7.90;1.00;;;;;;5377060;26;20281;-79
2024/04/22 09:49:29;;;;;;;3.93;2.93;;;7.70;1.00;;;;;;5379259;26;20237;-80
2024/04/22 09:52:02;;;;;;;3.03;2.40;;;8.00;1.00;;;;;;5365354;26;20249;-79
2024/04/22 09:54:30;;;;;;;2.30;2.10;;;7.70;1.00;;;;;;5380639;26;20276;-78
2024/04/22 09:56:59;;;;;;;3.23;2.20;;;8.00;1.00;;;;;;5379007;26;20592;-79
2024/04/22 09:59:26;;;;;;;4.20;2.60;;;7.90;1.00;;;;;;5372875;26;20568;-77
2024/04/22 10:01:55;;;;;;;3.07;2.17;;;8.70;1.00;;;;;;5350032;26;20282;-78
2024/04/22 10:04:24;;;;;;;3.67;1.70;;;8.80;1.00;;;;;;5349396;26;20242;-79
2024/04/22 10:06:50;;;;;;;3.07;1.90;;;8.50;1.00;;;;;;5352406;26;20834;-79
2024/04/22 10:09:22;;;;;;;3.57;2.03;;;8.10;1.00;;;;;;5353527;26;20289;-79
2024/04/22 10:11:48;;;;;;;3.33;2.27;;;8.60;1.00;;;;;;5354108;26;20266;-79
2024/04/22 10:14:19;;;;;;;2.40;1.90;;;8.80;1.00;;;;;;5353027;26;20815;-77
2024/04/22 10:16:56;;;;;;;5.00;2.47;;;8.40;1.00;;;;;;5357020;26;20246;-78
2024/04/22 10:19:25;;;;;;;2.97;2.03;;;9.00;1.00;;;;;;5358498;26;20249;-78
2024/04/22 10:21:51;;;;;;;4.33;2.10;;;8.80;1.00;;;;;;5358989;26;20246;-79
2024/04/22 10:24:32;;;;;;;3.70;2.00;;;8.90;1.00;;;;;;5362961;26;20249;-79
2024/04/22 10:26:59;;;;;;;3.50;2.40;;;9.00;1.00;;;;;;5363268;26;20336;-79
2024/04/22 10:29:28;;;;;;;2.77;2.13;;;9.00;1.00;;;;;;5363239;26;20238;-77
2024/04/22 10:31:54;;;;;;;2.73;2.10;;;9.10;1.00;;;;;;5364719;26;20281;-80
2024/04/22 10:34:23;;;;;;;8.30;3.00;;;8.90;1.00;;;;;;5369385;26;20661;-80
2024/04/22 10:36:49;;;;;;;3.40;2.50;;;9.20;1.00;;;;;;5365773;26;20335;-79
2024/04/22 10:39:17;;;;;;;4.17;2.23;;;9.10;1.00;;;;;;5371868;26;20317;-77
2024/04/22 10:41:47;;;;;;;3.20;2.20;;;9.40;1.00;;;;;;5371540;26;20373;-77
2024/04/22 10:44:16;;;;;;;3.60;2.50;;;9.20;1.00;;;;;;5363784;26;20245;-77
2024/04/22 10:46:43;;;;;;;3.60;2.13;;;9.00;1.00;;;;;;5371267;26;20292;-77
2024/04/22 10:49:12;;;;;;;2.40;2.20;;;9.70;1.00;;;;;;5377533;26;20743;-77
2024/04/22 10:51:38;;;;;;;5.60;2.50;;;9.60;1.00;;;;;;5374632;26;20242;-78
2024/04/22 10:54:06;;;;;;;2.60;2.10;;;9.40;1.00;;;;;;5380442;26;20238;-79
2024/04/22 10:56:33;;;;;;;4.23;2.90;;;9.30;1.00;;;;;;5381825;26;20242;-80
2024/04/22 10:59:05;;;;;;;4.33;2.50;;;9.20;1.00;;;;;;5380417;26;20234;-78
2024/04/22 11:01:31;;;;;;;5.03;2.50;;;9.00;1.00;;;;;;5381951;26;20246;-79
2024/04/22 11:04:01;;;;;;;2.87;2.47;;;10.20;1.00;;;;;;5381587;26;20242;-79
2024/04/22 11:06:28;;;;;;;6.30;2.63;;;10.00;1.00;;;;;;5373913;26;20322;-78
2024/04/22 11:08:57;;;;;;;3.80;2.20;;;9.60;1.00;;;;;;5355987;26;20296;-78
2024/04/22 11:11:25;;;;;;;3.23;2.27;;;9.70;1.00;;;;;;5354910;26;20602;-77
2024/04/22 11:13:54;;;;;;;15.40;3.50;;;9.30;1.00;;;;;;5368543;26;20243;-77
2024/04/22 11:16:24;;;;;;;4.40;2.20;;;9.50;1.00;;;;;;5359575;26;20280;-80
2024/04/22 11:19:02;;;;;;;5.03;2.30;;;9.50;1.00;;;;;;5359584;26;20360;-80
2024/04/22 11:21:28;;;;;;;2.83;2.53;;;9.70;1.00;;;;;;5378981;26;20300;-78
2024/04/22 11:23:57;;;;;;;2.47;2.20;;;9.80;1.00;;;;;;5363654;26;20242;-78
2024/04/22 11:26:25;;;;;;;2.73;2.40;;;9.50;1.00;;;;;;5372579;26;20241;-81
2024/04/22 11:28:55;;;;;;;3.00;2.60;;;9.70;1.00;;;;;;5366796;26;20298;-80
2024/04/22 11:31:25;;;;;;;2.80;2.27;;;10.00;1.00;;;;;;5371909;26;20245;-79
2024/04/22 11:33:56;;;;;;;2.57;2.33;;;10.40;1.00;;;;;;5369018;26;20250;-78
2024/04/22 11:36:24;;;;;;;2.50;2.23;;;9.90;1.00;;;;;;5369392;26;20245;-80
2024/04/22 11:38:53;;;;;;;2.70;2.10;;;10.40;1.00;;;;;;5371696;26;20292;-79
2024/04/22 11:41:21;;;;;;;3.43;2.30;;;10.20;1.00;;;;;;5379349;26;20732;-79
2024/04/22 11:43:49;;;;;;;3.70;2.10;;;9.80;1.00;;;;;;5380384;26;20925;-79
2024/04/22 11:46:16;;;;;;;3.33;2.33;;;9.40;1.00;;;;;;5381257;26;20739;-77
2024/04/22 11:48:49;;;;;;;5.47;2.70;;;9.10;1.00;;;;;;5376764;26;20313;-78
2024/04/22 11:51:15;;;;;;;2.93;2.43;;;9.10;1.00;;;;;;5381222;26;20249;-78
2024/04/22 11:53:44;;;;;;;4.70;2.30;;;9.40;1.00;;;;;;5381123;26;20241;-80
2024/04/22 11:56:10;;;;;;;3.20;2.43;;;10.30;1.00;;;;;;5381532;26;20301;-78
2024/04/22 11:58:39;;;;;;;3.37;2.50;;;10.10;1.00;;;;;;5381556;26;20242;-78
2024/04/22 12:01:05;;;;;;;2.93;2.30;;;10.20;1.00;;;;;;5377563;26;20254;-78
2024/04/22 12:03:35;;;;;;;3.77;2.53;;;9.60;1.00;;;;;;5380235;26;20832;-79
2024/04/22 12:06:04;;;;;;;4.20;2.53;;;9.10;1.00;;;;;;5365565;26;20281;-79
2024/04/22 12:08:33;;;;;;;3.57;2.30;;;8.80;1.00;;;;;;5380888;26;20245;-81
2024/04/22 12:10:59;;;;;;;3.73;2.30;;;8.70;1.00;;;;;;5372268;26;20254;-79
2024/04/22 12:13:28;;;;;;;2.67;2.13;;;8.30;1.00;;;;;;5372529;26;20245;-80
2024/04/22 12:15:54;;;;;;;4.37;2.00;;;8.50;1.00;;;;;;5368059;26;20250;-79
2024/04/22 12:18:23;;;;;;;2.47;1.97;;;8.50;1.00;;;;;;5357476;26;20710;-78
2024/04/22 12:20:49;;;;;;;3.57;2.13;;;8.40;1.00;;;;;;5359200;26;20759;-77
2024/04/22 12:23:21;;;;;;;2.20;2.00;;;8.40;1.00;;;;;;5358060;26;20241;-81
2024/04/22 12:25:47;;;;;;;2.80;2.30;;;8.40;1.00;;;;;;5359448;26;20302;-78
2024/04/22 12:28:16;;;;;;;5.03;2.70;;;8.60;1.00;;;;;;5365517;26;20246;-78
2024/04/22 12:30:42;;;;;;;3.50;2.50;;;8.50;1.00;;;;;;5366004;26;20289;-76
2024/04/22 12:33:11;;;;;;;5.90;2.40;;;8.10;1.00;;;;;;5367286;26;20278;-78
2024/04/22 12:35:37;;;;;;;2.87;2.20;;;7.80;1.00;;;;;;5372807;26;20358;-81
2024/04/22 12:38:07;;;;;;;5.07;2.33;;;7.70;1.00;;;;;;5368727;26;20242;-78
2024/04/22 12:40:36;;;;;;;6.20;2.20;;;7.70;1.00;;;;;;5371728;26;20254;-79
2024/04/22 12:43:07;;;;;;;2.33;1.87;;;7.60;1.00;;;;;;5363159;26;20246;-77
2024/04/22 12:45:33;;;;;;;3.17;2.30;;;7.30;1.00;;;;;;5360574;26;20245;-77
2024/04/22 12:50:48;;;;;;;3.47;2.40;;;7.40;1.00;;;;;;5374328;26;20363;-78
2024/04/22 12:53:17;;;;;;;3.20;2.33;;;8.20;1.00;;;;;;5373293;26;20238;-79
2024/04/22 12:55:49;;;;;;;4.20;2.90;;;8.10;1.00;;;;;;5376407;26;20257;-80
2024/04/22 12:58:18;;;;;;;4.80;2.93;;;8.10;1.00;;;;;;5369175;26;20281;-79
2024/04/22 13:00:47;;;;;;;5.97;3.47;;;8.20;1.00;;;;;;5369196;26;20246;-80
2024/04/22 13:03:16;;;;;;;6.73;2.90;;;8.00;1.00;;;;;;5366729;26;20250;-80
2024/04/22 13:05:45;;;;;;;3.87;2.20;;;7.90;1.00;;;;;;5364699;26;20277;-78
2024/04/22 13:08:14;;;;;;;3.97;2.87;;;8.20;1.00;;;;;;5364309;26;20457;-78
2024/04/22 13:10:43;;;;;;;3.43;2.90;;;8.20;1.00;;;;;;5368664;26;20705;-77
2024/04/22 13:13:14;;;;;;;5.20;3.00;;;8.30;1.00;;;;;;5364219;26;20694;-77
2024/04/22 13:15:43;;;;;;;4.53;3.37;;;8.40;1.00;;;;;;5367633;26;20250;-77
2024/04/22 13:18:13;;;;;;;4.87;2.93;;;8.50;1.00;;;;;;5366763;26;20254;-77